sensor_id;sensor_type;location;lat;lon;timestamp;temperature;humidity
18694;DHT22;9477;51.414;10.362;2023-02-28T00:00:02;4.70;60.30
18694;DHT22;9477;51.414;10.362;2023-02-28T00:02:12;4.60;60.20
18694;DHT22;9477;51.414;10.362;2023-02-28T00:04:15;4.60;60.20
18694;DHT22;9477;51.414;10.362;2023-02-28T00:06:17;4.60;60.10
18694;DHT22;9477;51.414;10.362;2023-02-28T00:08:21;4.60;60.20
18694;DHT22;9477;51.414;10.362;2023-02-28T00:10:26;4.70;60.30
18694;DHT22;9477;51.414;10.362;2023-02-28T00:12:30;4.70;60.40
18694;DHT22;9477;51.414;10.362;2023-02-28T00:14:33;4.80;60.50
18694;DHT22;9477;51.414;10.362;2023-02-28T00:16:36;4.80;60.30
18694;DHT22;9477;51.414;10.362;2023-02-28T00:18:40;4.80;60.30
18694;DHT22;9477;51.414;10.362;2023-02-28T00:20:46;4.80;60.10
18694;DHT22;9477;51.414;10.362;2023-02-28T00:22:50;4.80;60.10
18694;DHT22;9477;51.414;10.362;2023-02-28T00:24:53;4.70;59.60
18694;DHT22;9477;51.414;10.362;2023-02-28T00:26:56;4.80;59.90
18694;DHT22;9477;51.414;10.362;2023-02-28T00:28:59;4.80;59.90
18694;DHT22;9477;51.414;10.362;2023-02-28T00:31:03;4.80;59.60
18694;DHT22;9477;51.414;10.362;2023-02-28T00:33:06;4.90;59.90
18694;DHT22;9477;51.414;10.362;2023-02-28T00:35:11;4.90;60.00
18694;DHT22;9477;51.414;10.362;2023-02-28T00:37:14;4.90;60.10
18694;DHT22;9477;51.414;10.362;2023-02-28T00:39:16;5.00;59.80
18694;DHT22;9477;51.414;10.362;2023-02-28T00:41:19;4.90;59.50
18694;DHT22;9477;51.414;10.362;2023-02-28T00:43:22;4.90;59.50
18694;DHT22;9477;51.414;10.362;2023-02-28T00:45:26;4.80;59.40
18694;DHT22;9477;51.414;10.362;2023-02-28T00:47:28;4.80;59.40
18694;DHT22;9477;51.414;10.362;2023-02-28T00:49:31;4.80;59.30
18694;DHT22;9477;51.414;10.362;2023-02-28T00:51:36;4.80;59.20
18694;DHT22;9477;51.414;10.362;2023-02-28T00:53:38;4.90;59.50
18694;DHT22;9477;51.414;10.362;2023-02-28T00:55:41;4.80;59.10
18694;DHT22;9477;51.414;10.362;2023-02-28T00:57:44;4.80;59.00
18694;DHT22;9477;51.414;10.362;2023-02-28T00:59:47;4.80;59.20
18694;DHT22;9477;51.414;10.362;2023-02-28T01:01:50;4.90;59.10
18694;DHT22;9477;51.414;10.362;2023-02-28T01:03:53;4.80;58.90
18694;DHT22;9477;51.414;10.362;2023-02-28T01:05:56;4.80;59.00
18694;DHT22;9477;51.414;10.362;2023-02-28T01:08:00;4.80;58.80
18694;DHT22;9477;51.414;10.362;2023-02-28T01:10:04;4.80;58.90
18694;DHT22;9477;51.414;10.362;2023-02-28T01:12:07;4.90;59.00
18694;DHT22;9477;51.414;10.362;2023-02-28T01:14:12;4.80;58.70
18694;DHT22;9477;51.414;10.362;2023-02-28T01:16:15;4.80;58.70
18694;DHT22;9477;51.414;10.362;2023-02-28T01:18:18;4.90;58.80
18694;DHT22;9477;51.414;10.362;2023-02-28T01:20:21;4.90;58.90
18694;DHT22;9477;51.414;10.362;2023-02-28T01:22:24;4.90;58.80
18694;DHT22;9477;51.414;10.362;2023-02-28T01:24:29;5.00;59.00
18694;DHT22;9477;51.414;10.362;2023-02-28T01:26:34;5.00;58.70
18694;DHT22;9477;51.414;10.362;2023-02-28T01:28:37;5.00;58.70
18694;DHT22;9477;51.414;10.362;2023-02-28T01:30:41;5.00;58.60
18694;DHT22;9477;51.414;10.362;2023-02-28T01:32:44;4.90;58.60
18694;DHT22;9477;51.414;10.362;2023-02-28T01:34:46;4.90;58.80
18694;DHT22;9477;51.414;10.362;2023-02-28T01:36:49;4.90;58.80
18694;DHT22;9477;51.414;10.362;2023-02-28T01:38:52;4.90;58.70
18694;DHT22;9477;51.414;10.362;2023-02-28T01:40:57;4.90;58.90
18694;DHT22;9477;51.414;10.362;2023-02-28T01:43:00;4.90;58.80
18694;DHT22;9477;51.414;10.362;2023-02-28T01:45:16;4.80;58.80
18694;DHT22;9477;51.414;10.362;2023-02-28T01:47:22;4.90;58.90
18694;DHT22;9477;51.414;10.362;2023-02-28T01:49:26;4.80;58.90
18694;DHT22;9477;51.414;10.362;2023-02-28T01:51:31;4.80;59.10
18694;DHT22;9477;51.414;10.362;2023-02-28T01:53:41;4.80;59.10
18694;DHT22;9477;51.414;10.362;2023-02-28T01:55:47;4.80;59.10
18694;DHT22;9477;51.414;10.362;2023-02-28T01:57:55;4.80;59.10
18694;DHT22;9477;51.414;10.362;2023-02-28T02:00:01;4.90;59.30
18694;DHT22;9477;51.414;10.362;2023-02-28T02:02:08;4.80;59.10
18694;DHT22;9477;51.414;10.362;2023-02-28T02:04:12;4.80;59.10
18694;DHT22;9477;51.414;10.362;2023-02-28T02:06:14;4.80;59.10
18694;DHT22;9477;51.414;10.362;2023-02-28T02:08:19;4.80;59.20
18694;DHT22;9477;51.414;10.362;2023-02-28T02:10:29;4.90;59.30
18694;DHT22;9477;51.414;10.362;2023-02-28T02:12:44;4.80;59.10
18694;DHT22;9477;51.414;10.362;2023-02-28T02:15:00;4.90;59.90
18694;DHT22;9477;51.414;10.362;2023-02-28T02:17:16;4.80;59.10
18694;DHT22;9477;51.414;10.362;2023-02-28T02:19:42;4.80;59.20
18694;DHT22;9477;51.414;10.362;2023-02-28T02:22:12;4.80;59.30
18694;DHT22;9477;51.414;10.362;2023-02-28T02:24:48;4.80;59.30
18694;DHT22;9477;51.414;10.362;2023-02-28T02:27:24;4.80;59.40
18694;DHT22;9477;51.414;10.362;2023-02-28T02:29:43;4.80;59.40
18694;DHT22;9477;51.414;10.362;2023-02-28T02:32:23;4.90;59.40
18694;DHT22;9477;51.414;10.362;2023-02-28T02:34:43;4.90;59.50
18694;DHT22;9477;51.414;10.362;2023-02-28T02:36:51;4.90;59.50
18694;DHT22;9477;51.414;10.362;2023-02-28T02:39:02;4.90;59.50
18694;DHT22;9477;51.414;10.362;2023-02-28T02:41:13;4.80;59.30
18694;DHT22;9477;51.414;10.362;2023-02-28T02:43:19;4.90;59.50
18694;DHT22;9477;51.414;10.362;2023-02-28T02:45:29;4.80;59.40
18694;DHT22;9477;51.414;10.362;2023-02-28T02:47:38;4.90;59.60
18694;DHT22;9477;51.414;10.362;2023-02-28T02:49:46;4.90;59.60
18694;DHT22;9477;51.414;10.362;2023-02-28T02:51:51;4.90;59.50
18694;DHT22;9477;51.414;10.362;2023-02-28T02:53:56;4.80;59.40
18694;DHT22;9477;51.414;10.362;2023-02-28T02:56:01;4.90;59.70
18694;DHT22;9477;51.414;10.362;2023-02-28T02:58:10;4.90;59.70
18694;DHT22;9477;51.414;10.362;2023-02-28T03:00:16;4.70;60.00
18694;DHT22;9477;51.414;10.362;2023-02-28T03:02:21;4.80;59.50
18694;DHT22;9477;51.414;10.362;2023-02-28T03:04:26;4.70;59.40
18694;DHT22;9477;51.414;10.362;2023-02-28T03:06:32;4.80;59.80
18694;DHT22;9477;51.414;10.362;2023-02-28T03:08:38;4.80;59.80
18694;DHT22;9477;51.414;10.362;2023-02-28T03:10:42;4.80;59.80
18694;DHT22;9477;51.414;10.362;2023-02-28T03:12:49;4.70;59.80
18694;DHT22;9477;51.414;10.362;2023-02-28T03:15:01;4.80;59.90
18694;DHT22;9477;51.414;10.362;2023-02-28T03:19:41;4.80;60.00
18694;DHT22;9477;51.414;10.362;2023-02-28T03:21:56;4.80;59.90
18694;DHT22;9477;51.414;10.362;2023-02-28T03:24:05;4.80;59.90
18694;DHT22;9477;51.414;10.362;2023-02-28T03:26:16;4.80;60.00
18694;DHT22;9477;51.414;10.362;2023-02-28T03:28:29;4.80;60.00
18694;DHT22;9477;51.414;10.362;2023-02-28T03:30:40;4.80;60.20
18694;DHT22;9477;51.414;10.362;2023-02-28T03:32:52;4.90;60.30
18694;DHT22;9477;51.414;10.362;2023-02-28T03:35:00;4.90;60.40
18694;DHT22;9477;51.414;10.362;2023-02-28T03:37:10;4.90;60.40
18694;DHT22;9477;51.414;10.362;2023-02-28T03:39:17;4.90;60.30
18694;DHT22;9477;51.414;10.362;2023-02-28T03:41:23;4.80;60.20
18694;DHT22;9477;51.414;10.362;2023-02-28T03:43:34;4.90;60.50
18694;DHT22;9477;51.414;10.362;2023-02-28T03:45:39;4.90;60.60
18694;DHT22;9477;51.414;10.362;2023-02-28T03:47:48;4.90;60.50
18694;DHT22;9477;51.414;10.362;2023-02-28T03:49:56;5.00;60.60
18694;DHT22;9477;51.414;10.362;2023-02-28T03:52:03;4.90;60.50
18694;DHT22;9477;51.414;10.362;2023-02-28T03:54:12;5.00;60.60
18694;DHT22;9477;51.414;10.362;2023-02-28T03:56:17;5.00;60.70
18694;DHT22;9477;51.414;10.362;2023-02-28T03:58:28;5.10;60.70
18694;DHT22;9477;51.414;10.362;2023-02-28T04:00:37;5.10;60.50
18694;DHT22;9477;51.414;10.362;2023-02-28T04:02:42;5.10;60.60
18694;DHT22;9477;51.414;10.362;2023-02-28T04:04:45;5.10;60.60
18694;DHT22;9477;51.414;10.362;2023-02-28T04:06:51;5.10;60.50
18694;DHT22;9477;51.414;10.362;2023-02-28T04:08:54;5.10;60.50
18694;DHT22;9477;51.414;10.362;2023-02-28T04:11:02;5.00;60.40
18694;DHT22;9477;51.414;10.362;2023-02-28T04:13:05;5.00;60.70
18694;DHT22;9477;51.414;10.362;2023-02-28T04:15:09;5.10;60.70
18694;DHT22;9477;51.414;10.362;2023-02-28T04:17:12;5.10;60.70
18694;DHT22;9477;51.414;10.362;2023-02-28T04:19:15;5.10;60.70
18694;DHT22;9477;51.414;10.362;2023-02-28T04:21:18;5.10;60.60
18694;DHT22;9477;51.414;10.362;2023-02-28T04:23:23;5.10;60.50
18694;DHT22;9477;51.414;10.362;2023-02-28T04:25:26;5.10;60.50
18694;DHT22;9477;51.414;10.362;2023-02-28T04:27:30;5.10;60.50
18694;DHT22;9477;51.414;10.362;2023-02-28T04:29:33;4.90;60.00
18694;DHT22;9477;51.414;10.362;2023-02-28T04:31:36;4.80;60.20
18694;DHT22;9477;51.414;10.362;2023-02-28T04:33:39;4.80;60.40
18694;DHT22;9477;51.414;10.362;2023-02-28T04:35:42;4.80;60.60
18694;DHT22;9477;51.414;10.362;2023-02-28T04:37:46;4.90;60.60
18694;DHT22;9477;51.414;10.362;2023-02-28T04:39:48;4.90;60.50
18694;DHT22;9477;51.414;10.362;2023-02-28T04:41:51;4.80;60.40
18694;DHT22;9477;51.414;10.362;2023-02-28T04:43:56;4.90;60.70
18694;DHT22;9477;51.414;10.362;2023-02-28T04:46:02;4.90;60.60
18694;DHT22;9477;51.414;10.362;2023-02-28T04:48:05;5.00;60.70
18694;DHT22;9477;51.414;10.362;2023-02-28T04:50:09;5.00;60.50
18694;DHT22;9477;51.414;10.362;2023-02-28T04:52:12;5.00;60.50
18694;DHT22;9477;51.414;10.362;2023-02-28T04:54:15;5.00;60.50
18694;DHT22;9477;51.414;10.362;2023-02-28T04:56:20;5.00;60.40
18694;DHT22;9477;51.414;10.362;2023-02-28T04:58:23;5.00;60.50
18694;DHT22;9477;51.414;10.362;2023-02-28T05:00:28;4.90;60.40
18694;DHT22;9477;51.414;10.362;2023-02-28T05:02:30;4.90;60.50
18694;DHT22;9477;51.414;10.362;2023-02-28T05:04:33;4.90;60.60
18694;DHT22;9477;51.414;10.362;2023-02-28T05:06:36;4.80;60.50
18694;DHT22;9477;51.414;10.362;2023-02-28T05:08:39;4.80;60.50
18694;DHT22;9477;51.414;10.362;2023-02-28T05:10:43;4.80;60.80
18694;DHT22;9477;51.414;10.362;2023-02-28T05:12:45;4.70;60.80
18694;DHT22;9477;51.414;10.362;2023-02-28T05:14:49;4.70;60.80
18694;DHT22;9477;51.414;10.362;2023-02-28T05:16:53;4.70;61.00
18694;DHT22;9477;51.414;10.362;2023-02-28T05:18:56;4.80;61.00
18694;DHT22;9477;51.414;10.362;2023-02-28T05:21:00;4.80;61.00
18694;DHT22;9477;51.414;10.362;2023-02-28T05:23:04;4.80;61.20
18694;DHT22;9477;51.414;10.362;2023-02-28T05:25:08;4.80;61.20
18694;DHT22;9477;51.414;10.362;2023-02-28T05:27:13;4.90;61.40
18694;DHT22;9477;51.414;10.362;2023-02-28T05:29:16;4.90;61.20
18694;DHT22;9477;51.414;10.362;2023-02-28T05:31:19;4.80;60.90
18694;DHT22;9477;51.414;10.362;2023-02-28T05:33:24;4.80;60.80
18694;DHT22;9477;51.414;10.362;2023-02-28T05:35:27;4.80;61.00
18694;DHT22;9477;51.414;10.362;2023-02-28T05:37:30;4.70;61.00
18694;DHT22;9477;51.414;10.362;2023-02-28T05:39:33;4.70;61.10
18694;DHT22;9477;51.414;10.362;2023-02-28T05:41:35;4.70;61.00
18694;DHT22;9477;51.414;10.362;2023-02-28T05:43:38;4.60;60.90
18694;DHT22;9477;51.414;10.362;2023-02-28T05:45:41;4.60;61.00
18694;DHT22;9477;51.414;10.362;2023-02-28T05:47:44;4.60;61.00
18694;DHT22;9477;51.414;10.362;2023-02-28T05:49:48;4.60;61.00
18694;DHT22;9477;51.414;10.362;2023-02-28T05:51:51;4.60;60.90
18694;DHT22;9477;51.414;10.362;2023-02-28T05:53:54;4.50;61.00
18694;DHT22;9477;51.414;10.362;2023-02-28T05:55:58;4.60;60.80
18694;DHT22;9477;51.414;10.362;2023-02-28T05:58:01;4.50;60.70
18694;DHT22;9477;51.414;10.362;2023-02-28T06:00:06;4.60;60.70
18694;DHT22;9477;51.414;10.362;2023-02-28T06:02:11;4.60;60.70
18694;DHT22;9477;51.414;10.362;2023-02-28T06:04:16;4.60;60.60
18694;DHT22;9477;51.414;10.362;2023-02-28T06:06:34;4.50;60.60
18694;DHT22;9477;51.414;10.362;2023-02-28T06:08:37;4.40;60.60
18694;DHT22;9477;51.414;10.362;2023-02-28T06:10:40;4.50;60.80
18694;DHT22;9477;51.414;10.362;2023-02-28T06:12:43;4.50;60.80
18694;DHT22;9477;51.414;10.362;2023-02-28T06:14:46;4.50;60.80
18694;DHT22;9477;51.414;10.362;2023-02-28T06:16:49;4.50;60.80
18694;DHT22;9477;51.414;10.362;2023-02-28T06:18:53;4.50;60.70
18694;DHT22;9477;51.414;10.362;2023-02-28T06:20:57;4.50;60.80
18694;DHT22;9477;51.414;10.362;2023-02-28T06:23:01;4.60;60.80
18694;DHT22;9477;51.414;10.362;2023-02-28T06:25:06;4.60;60.80
18694;DHT22;9477;51.414;10.362;2023-02-28T06:27:09;4.60;60.80
18694;DHT22;9477;51.414;10.362;2023-02-28T06:29:12;4.50;60.50
18694;DHT22;9477;51.414;10.362;2023-02-28T06:31:19;4.40;60.60
18694;DHT22;9477;51.414;10.362;2023-02-28T06:33:23;4.40;60.70
18694;DHT22;9477;51.414;10.362;2023-02-28T06:35:27;4.40;60.90
18694;DHT22;9477;51.414;10.362;2023-02-28T06:37:31;4.40;61.00
18694;DHT22;9477;51.414;10.362;2023-02-28T06:39:35;4.50;61.00
18694;DHT22;9477;51.414;10.362;2023-02-28T06:41:38;4.50;61.00
18694;DHT22;9477;51.414;10.362;2023-02-28T06:43:56;4.50;61.00
18694;DHT22;9477;51.414;10.362;2023-02-28T06:46:00;4.60;61.20
18694;DHT22;9477;51.414;10.362;2023-02-28T06:48:03;4.50;60.80
18694;DHT22;9477;51.414;10.362;2023-02-28T06:50:08;4.60;61.20
18694;DHT22;9477;51.414;10.362;2023-02-28T06:52:11;4.60;61.20
18694;DHT22;9477;51.414;10.362;2023-02-28T06:54:14;4.60;61.10
18694;DHT22;9477;51.414;10.362;2023-02-28T06:56:19;4.70;61.00
18694;DHT22;9477;51.414;10.362;2023-02-28T06:58:22;4.70;61.10
18694;DHT22;9477;51.414;10.362;2023-02-28T07:00:25;4.70;61.00
18694;DHT22;9477;51.414;10.362;2023-02-28T07:02:28;4.70;61.20
18694;DHT22;9477;51.414;10.362;2023-02-28T07:04:31;4.90;61.70
18694;DHT22;9477;51.414;10.362;2023-02-28T07:06:34;5.10;62.30
18694;DHT22;9477;51.414;10.362;2023-02-28T07:08:37;5.20;61.20
18694;DHT22;9477;51.414;10.362;2023-02-28T07:10:41;5.30;61.20
18694;DHT22;9477;51.414;10.362;2023-02-28T07:12:45;5.30;60.60
18694;DHT22;9477;51.414;10.362;2023-02-28T07:14:48;5.30;61.30
18694;DHT22;9477;51.414;10.362;2023-02-28T07:16:51;5.20;60.60
18694;DHT22;9477;51.414;10.362;2023-02-28T07:18:54;5.30;60.90
18694;DHT22;9477;51.414;10.362;2023-02-28T07:20:57;5.20;60.50
18694;DHT22;9477;51.414;10.362;2023-02-28T07:23:01;5.20;60.60
18694;DHT22;9477;51.414;10.362;2023-02-28T07:25:04;5.30;60.70
18694;DHT22;9477;51.414;10.362;2023-02-28T07:27:07;5.40;60.90
18694;DHT22;9477;51.414;10.362;2023-02-28T07:29:12;5.40;61.50
18694;DHT22;9477;51.414;10.362;2023-02-28T07:31:15;5.50;61.00
18694;DHT22;9477;51.414;10.362;2023-02-28T07:33:19;5.60;60.90
18694;DHT22;9477;51.414;10.362;2023-02-28T07:35:22;5.60;60.60
18694;DHT22;9477;51.414;10.362;2023-02-28T07:37:25;5.60;60.50
18694;DHT22;9477;51.414;10.362;2023-02-28T07:39:28;5.70;60.70
18694;DHT22;9477;51.414;10.362;2023-02-28T07:41:31;5.80;60.40
18694;DHT22;9477;51.414;10.362;2023-02-28T07:43:35;5.80;60.30
18694;DHT22;9477;51.414;10.362;2023-02-28T07:45:40;5.70;60.00
18694;DHT22;9477;51.414;10.362;2023-02-28T07:47:43;5.70;60.10
18694;DHT22;9477;51.414;10.362;2023-02-28T07:49:46;5.80;60.50
18694;DHT22;9477;51.414;10.362;2023-02-28T07:51:49;5.80;60.00
18694;DHT22;9477;51.414;10.362;2023-02-28T07:53:52;5.70;59.70
18694;DHT22;9477;51.414;10.362;2023-02-28T07:55:55;5.60;59.60
18694;DHT22;9477;51.414;10.362;2023-02-28T07:57:58;5.60;59.70
18694;DHT22;9477;51.414;10.362;2023-02-28T08:00:03;5.60;59.90
18694;DHT22;9477;51.414;10.362;2023-02-28T08:02:10;5.50;59.60
18694;DHT22;9477;51.414;10.362;2023-02-28T08:04:14;5.50;59.70
18694;DHT22;9477;51.414;10.362;2023-02-28T08:06:19;5.60;60.00
18694;DHT22;9477;51.414;10.362;2023-02-28T08:08:22;5.70;60.30
18694;DHT22;9477;51.414;10.362;2023-02-28T08:10:25;5.70;60.10
18694;DHT22;9477;51.414;10.362;2023-02-28T08:12:28;5.70;60.00
18694;DHT22;9477;51.414;10.362;2023-02-28T08:14:31;5.70;59.70
18694;DHT22;9477;51.414;10.362;2023-02-28T08:16:34;5.70;59.80
18694;DHT22;9477;51.414;10.362;2023-02-28T08:18:38;5.90;60.00
18694;DHT22;9477;51.414;10.362;2023-02-28T08:20:41;5.90;59.80
18694;DHT22;9477;51.414;10.362;2023-02-28T08:22:47;6.00;59.60
18694;DHT22;9477;51.414;10.362;2023-02-28T08:24:50;6.10;59.70
18694;DHT22;9477;51.414;10.362;2023-02-28T08:26:53;6.00;58.80
18694;DHT22;9477;51.414;10.362;2023-02-28T08:28:55;6.00;58.80
18694;DHT22;9477;51.414;10.362;2023-02-28T08:31:07;6.00;58.70
18694;DHT22;9477;51.414;10.362;2023-02-28T08:33:10;6.00;58.60
18694;DHT22;9477;51.414;10.362;2023-02-28T08:35:14;5.90;58.20
18694;DHT22;9477;51.414;10.362;2023-02-28T08:37:17;6.00;58.10
18694;DHT22;9477;51.414;10.362;2023-02-28T08:39:20;6.00;58.30
18694;DHT22;9477;51.414;10.362;2023-02-28T08:41:23;6.00;57.80
18694;DHT22;9477;51.414;10.362;2023-02-28T08:43:27;6.00;57.50
18694;DHT22;9477;51.414;10.362;2023-02-28T08:45:30;5.90;57.10
18694;DHT22;9477;51.414;10.362;2023-02-28T08:47:33;6.00;57.30
18694;DHT22;9477;51.414;10.362;2023-02-28T08:49:36;6.00;57.10
18694;DHT22;9477;51.414;10.362;2023-02-28T08:51:41;6.10;57.40
18694;DHT22;9477;51.414;10.362;2023-02-28T08:53:44;6.20;57.50
18694;DHT22;9477;51.414;10.362;2023-02-28T08:55:48;6.30;57.50
18694;DHT22;9477;51.414;10.362;2023-02-28T08:57:57;6.30;56.80
18694;DHT22;9477;51.414;10.362;2023-02-28T09:00:03;6.30;56.80
18694;DHT22;9477;51.414;10.362;2023-02-28T09:02:08;6.50;57.10
18694;DHT22;9477;51.414;10.362;2023-02-28T09:04:11;6.40;56.40
18694;DHT22;9477;51.414;10.362;2023-02-28T09:06:20;6.40;56.10
18694;DHT22;9477;51.414;10.362;2023-02-28T09:08:26;6.60;56.80
18694;DHT22;9477;51.414;10.362;2023-02-28T09:10:30;6.60;56.40
18694;DHT22;9477;51.414;10.362;2023-02-28T09:12:34;6.60;56.40
18694;DHT22;9477;51.414;10.362;2023-02-28T09:14:37;6.60;55.80
18694;DHT22;9477;51.414;10.362;2023-02-28T09:16:39;6.70;55.60
18694;DHT22;9477;51.414;10.362;2023-02-28T09:18:43;6.80;56.00
18694;DHT22;9477;51.414;10.362;2023-02-28T09:20:46;6.60;54.30
18694;DHT22;9477;51.414;10.362;2023-02-28T09:22:49;6.70;54.80
18694;DHT22;9477;51.414;10.362;2023-02-28T09:24:54;6.80;55.70
18694;DHT22;9477;51.414;10.362;2023-02-28T09:26:57;6.90;55.50
18694;DHT22;9477;51.414;10.362;2023-02-28T09:29:06;6.90;55.60
18694;DHT22;9477;51.414;10.362;2023-02-28T09:31:12;6.90;54.40
18694;DHT22;9477;51.414;10.362;2023-02-28T09:33:16;6.80;54.10
18694;DHT22;9477;51.414;10.362;2023-02-28T09:35:23;6.80;54.20
18694;DHT22;9477;51.414;10.362;2023-02-28T09:37:26;7.00;54.90
18694;DHT22;9477;51.414;10.362;2023-02-28T09:39:30;7.10;54.50
18694;DHT22;9477;51.414;10.362;2023-02-28T09:41:39;7.10;54.30
18694;DHT22;9477;51.414;10.362;2023-02-28T09:43:52;7.00;54.10
18694;DHT22;9477;51.414;10.362;2023-02-28T09:46:00;7.00;54.10
18694;DHT22;9477;51.414;10.362;2023-02-28T09:48:12;6.80;53.70
18694;DHT22;9477;51.414;10.362;2023-02-28T09:50:22;6.70;53.80
18694;DHT22;9477;51.414;10.362;2023-02-28T09:52:29;6.50;53.60
18694;DHT22;9477;51.414;10.362;2023-02-28T09:54:32;6.50;53.80
18694;DHT22;9477;51.414;10.362;2023-02-28T09:56:39;6.30;53.50
18694;DHT22;9477;51.414;10.362;2023-02-28T09:58:47;6.30;53.80
18694;DHT22;9477;51.414;10.362;2023-02-28T10:00:57;6.30;54.00
18694;DHT22;9477;51.414;10.362;2023-02-28T10:03:30;6.40;54.30
18694;DHT22;9477;51.414;10.362;2023-02-28T10:05:39;6.70;54.40
18694;DHT22;9477;51.414;10.362;2023-02-28T10:07:53;6.50;53.40
18694;DHT22;9477;51.414;10.362;2023-02-28T10:10:04;6.40;53.50
18694;DHT22;9477;51.414;10.362;2023-02-28T10:12:10;6.40;53.60
18694;DHT22;9477;51.414;10.362;2023-02-28T10:14:16;6.10;53.10
18694;DHT22;9477;51.414;10.362;2023-02-28T10:16:24;6.50;53.80
18694;DHT22;9477;51.414;10.362;2023-02-28T10:18:34;6.70;54.80
18694;DHT22;9477;51.414;10.362;2023-02-28T10:20:41;6.80;53.70
18694;DHT22;9477;51.414;10.362;2023-02-28T10:22:53;6.80;53.30
18694;DHT22;9477;51.414;10.362;2023-02-28T10:24:59;6.90;53.40
18694;DHT22;9477;51.414;10.362;2023-02-28T10:27:14;7.00;53.40
18694;DHT22;9477;51.414;10.362;2023-02-28T10:29:17;7.00;53.00
18694;DHT22;9477;51.414;10.362;2023-02-28T10:31:20;7.20;53.50
18694;DHT22;9477;51.414;10.362;2023-02-28T10:33:30;7.00;52.80
18694;DHT22;9477;51.414;10.362;2023-02-28T10:35:33;7.10;53.00
18694;DHT22;9477;51.414;10.362;2023-02-28T10:37:37;7.20;53.30
18694;DHT22;9477;51.414;10.362;2023-02-28T10:39:42;7.10;53.00
18694;DHT22;9477;51.414;10.362;2023-02-28T10:41:45;7.20;53.20
18694;DHT22;9477;51.414;10.362;2023-02-28T10:43:50;7.20;53.10
18694;DHT22;9477;51.414;10.362;2023-02-28T10:45:56;7.30;53.40
18694;DHT22;9477;51.414;10.362;2023-02-28T10:48:02;7.30;53.40
18694;DHT22;9477;51.414;10.362;2023-02-28T10:50:08;7.30;53.20
18694;DHT22;9477;51.414;10.362;2023-02-28T10:52:37;7.30;53.00
18694;DHT22;9477;51.414;10.362;2023-02-28T10:54:40;7.20;52.70
18694;DHT22;9477;51.414;10.362;2023-02-28T10:56:43;7.20;52.70
18694;DHT22;9477;51.414;10.362;2023-02-28T10:58:52;7.30;53.50
18694;DHT22;9477;51.414;10.362;2023-02-28T11:00:56;7.30;53.50
18694;DHT22;9477;51.414;10.362;2023-02-28T11:03:00;7.40;53.70
18694;DHT22;9477;51.414;10.362;2023-02-28T11:05:22;7.50;53.60
18694;DHT22;9477;51.414;10.362;2023-02-28T11:07:27;7.50;53.50
18694;DHT22;9477;51.414;10.362;2023-02-28T11:09:44;7.60;53.50
18694;DHT22;9477;51.414;10.362;2023-02-28T11:11:49;7.60;53.50
18694;DHT22;9477;51.414;10.362;2023-02-28T11:13:58;7.30;52.70
18694;DHT22;9477;51.414;10.362;2023-02-28T11:16:09;7.60;53.70
18694;DHT22;9477;51.414;10.362;2023-02-28T11:18:21;7.70;53.40
18694;DHT22;9477;51.414;10.362;2023-02-28T11:20:28;7.70;53.00
18694;DHT22;9477;51.414;10.362;2023-02-28T11:22:35;7.70;53.20
18694;DHT22;9477;51.414;10.362;2023-02-28T11:24:43;7.80;53.40
18694;DHT22;9477;51.414;10.362;2023-02-28T11:26:48;7.80;53.40
18694;DHT22;9477;51.414;10.362;2023-02-28T11:29:08;7.80;53.80
18694;DHT22;9477;51.414;10.362;2023-02-28T11:31:16;7.80;53.60
18694;DHT22;9477;51.414;10.362;2023-02-28T11:33:23;7.90;53.60
18694;DHT22;9477;51.414;10.362;2023-02-28T11:35:31;7.90;53.60
18694;DHT22;9477;51.414;10.362;2023-02-28T11:37:38;8.10;54.00
18694;DHT22;9477;51.414;10.362;2023-02-28T11:39:42;8.10;53.60
18694;DHT22;9477;51.414;10.362;2023-02-28T11:42:08;8.00;53.70
18694;DHT22;9477;51.414;10.362;2023-02-28T11:44:40;7.90;53.80
18694;DHT22;9477;51.414;10.362;2023-02-28T11:46:48;7.80;54.00
18694;DHT22;9477;51.414;10.362;2023-02-28T11:49:00;7.80;54.20
18694;DHT22;9477;51.414;10.362;2023-02-28T11:51:13;7.90;54.30
18694;DHT22;9477;51.414;10.362;2023-02-28T11:53:23;8.00;54.60
18694;DHT22;9477;51.414;10.362;2023-02-28T11:55:31;8.20;54.70
18694;DHT22;9477;51.414;10.362;2023-02-28T11:57:53;8.20;54.60
18694;DHT22;9477;51.414;10.362;2023-02-28T12:00:06;8.30;54.10
18694;DHT22;9477;51.414;10.362;2023-02-28T12:02:22;8.20;53.90
18694;DHT22;9477;51.414;10.362;2023-02-28T12:04:33;8.20;53.90
18694;DHT22;9477;51.414;10.362;2023-02-28T12:06:45;8.10;53.80
18694;DHT22;9477;51.414;10.362;2023-02-28T12:09:01;8.20;54.40
18694;DHT22;9477;51.414;10.362;2023-02-28T12:11:12;8.20;54.60
18694;DHT22;9477;51.414;10.362;2023-02-28T12:13:21;8.20;54.50
18694;DHT22;9477;51.414;10.362;2023-02-28T12:18:27;8.40;55.20
18694;DHT22;9477;51.414;10.362;2023-02-28T12:20:34;8.40;54.90
18694;DHT22;9477;51.414;10.362;2023-02-28T12:22:43;8.20;54.30
18694;DHT22;9477;51.414;10.362;2023-02-28T12:25:00;8.20;54.40
18694;DHT22;9477;51.414;10.362;2023-02-28T12:27:07;8.30;55.20
18694;DHT22;9477;51.414;10.362;2023-02-28T12:29:16;8.40;54.80
18694;DHT22;9477;51.414;10.362;2023-02-28T12:31:26;8.30;54.40
18694;DHT22;9477;51.414;10.362;2023-02-28T12:33:34;8.40;55.60
18694;DHT22;9477;51.414;10.362;2023-02-28T12:35:41;8.50;55.10
18694;DHT22;9477;51.414;10.362;2023-02-28T12:37:51;8.40;54.40
18694;DHT22;9477;51.414;10.362;2023-02-28T12:40:00;8.40;54.90
18694;DHT22;9477;51.414;10.362;2023-02-28T12:42:10;8.50;55.40
18694;DHT22;9477;51.414;10.362;2023-02-28T12:44:20;8.50;55.10
18694;DHT22;9477;51.414;10.362;2023-02-28T12:46:30;8.60;54.60
18694;DHT22;9477;51.414;10.362;2023-02-28T12:48:40;8.60;54.40
18694;DHT22;9477;51.414;10.362;2023-02-28T12:50:44;8.50;54.30
18694;DHT22;9477;51.414;10.362;2023-02-28T12:52:54;8.50;54.30
18694;DHT22;9477;51.414;10.362;2023-02-28T12:55:02;8.40;54.60
18694;DHT22;9477;51.414;10.362;2023-02-28T12:57:13;8.40;54.60
18694;DHT22;9477;51.414;10.362;2023-02-28T12:59:23;8.60;54.90
18694;DHT22;9477;51.414;10.362;2023-02-28T13:01:45;8.70;54.70
18694;DHT22;9477;51.414;10.362;2023-02-28T13:06:49;8.60;54.10
18694;DHT22;9477;51.414;10.362;2023-02-28T13:09:08;8.70;54.30
18694;DHT22;9477;51.414;10.362;2023-02-28T13:11:24;8.70;54.50
18694;DHT22;9477;51.414;10.362;2023-02-28T13:13:29;8.70;54.40
18694;DHT22;9477;51.414;10.362;2023-02-28T13:15:32;8.70;54.60
18694;DHT22;9477;51.414;10.362;2023-02-28T13:17:41;8.80;54.60
18694;DHT22;9477;51.414;10.362;2023-02-28T13:19:45;8.90;54.80
18694;DHT22;9477;51.414;10.362;2023-02-28T13:21:50;8.90;54.30
18694;DHT22;9477;51.414;10.362;2023-02-28T13:23:59;8.70;54.10
18694;DHT22;9477;51.414;10.362;2023-02-28T13:26:03;8.80;54.20
18694;DHT22;9477;51.414;10.362;2023-02-28T13:28:09;8.90;54.30
18694;DHT22;9477;51.414;10.362;2023-02-28T13:33:22;8.90;53.70
18694;DHT22;9477;51.414;10.362;2023-02-28T13:35:37;8.70;53.50
18694;DHT22;9477;51.414;10.362;2023-02-28T13:37:42;8.80;54.10
18694;DHT22;9477;51.414;10.362;2023-02-28T13:39:47;8.80;54.10
18694;DHT22;9477;51.414;10.362;2023-02-28T13:41:50;8.90;54.10